Tunacan — TUNACAN — position and weather

sailwx.info

Track history (hours):
 
Tides and Currents Weather Stations Pressure Air Temp Water Temp Dewpoint Dewpoint Depression Visibility Wind Speed Wind Dir Waves Ship Positions

Tunacan

Last reported at 2018-Feb-09 21:57 UTC. Time now 2018-Jul-21 03:33 UTC.
Position N 38°19' W 123°03'.
Warning: this ship's position is months out of date.

Length 13 m.

Type: Pleasure craft. MMSI: 338159978.

Date/timePositionNaut miles runAvg speedWind from/ knotsBaromVisibWave heightAir tempDewpointWater temp
2018-Feb-09 21:57N 38°19' W 123°03'2 0.1
2018-Feb-08 01:30N 38°17' W 123°05'1324.1
2018-Feb-08 00:57N 38°25' W 123°19'2 4.0
2018-Feb-08 00:29N 38°26' W 123°21'0 1.0
2018-Feb-08 00:00N 38°26' W 123°22'2 3.2
2018-Feb-07 23:30N 38°24' W 123°22'3 6.1
2018-Feb-07 22:59N 38°21' W 123°24'1 1.1
2018-Feb-07 22:30N 38°21' W 123°24'2 4.5
2018-Feb-07 22:00N 38°20' W 123°21'1123.2
2018-Feb-07 21:31N 38°18' W 123°07'3 0.1
2018-Feb-06 21:51N 38°20' W 123°03'3 9.2
2018-Feb-06 21:30N 38°18' W 123°07'2 3.0
2018-Feb-06 20:58N 38°17' W 123°05'3 5.0
2018-Feb-06 20:27N 38°20' W 123°03'0 0.0
2018-Feb-05 22:20N 38°20' W 123°03'0 0.5
2018-Feb-05 21:54N 38°20' W 123°04'0 0.0
2018-Feb-05 21:26N 38°20' W 123°04'2 5.5
2018-Feb-05 20:59N 38°18' W 123°04'1121.8
2018-Feb-05 20:30N 38°24' W 123°15'2 3.8
2018-Feb-05 20:00N 38°24' W 123°17'2 3.8
2018-Feb-05 19:28N 38°22' W 123°15'1 2.8
2018-Feb-05 19:00N 38°21' W 123°15'0 1.0
2018-Feb-05 18:30N 38°20' W 123°15'612.4
2018-Feb-05 18:00N 38°18' W 123°07'  
2018-Feb-02 21:33N 38°20' W 123°03'0 0.0
2018-Feb-02 21:27N 38°20' W 123°03'0 0.0
2018-Feb-02 20:51N 38°20' W 123°03'0 0.5
2018-Feb-02 20:30N 38°20' W 123°04'0 0.0
2018-Feb-02 19:57N 38°20' W 123°04'7 6.7
2018-Feb-02 18:59N 38°20' W 123°12'4 8.5
2018-Feb-02 18:29N 38°22' W 123°16'1 1.3
2018-Feb-02 18:01N 38°23' W 123°16'0 0.7
2018-Feb-02 17:31N 38°23' W 123°15'1 1.6
2018-Feb-02 16:59N 38°24' W 123°16'0 0.7
2018-Feb-02 16:30N 38°24' W 123°16'3 3.2
2018-Feb-02 15:31N 38°26' W 123°13'  
2018-Jan-30 23:57N 38°20' W 123°04'0 0.2
2018-Jan-30 23:30N 38°20' W 123°03'1 2.3
2018-Jan-30 22:59N 38°19' W 123°03'815.7
2018-Jan-30 22:30N 38°24' W 123°10'  
Track history (hours):
 
Tides and Currents Weather Stations Pressure Air Temp Water Temp Dewpoint Dewpoint Depression Visibility Wind Speed Wind Dir Waves Ship Positions

Tunacan

Last reported at 2018-Feb-09 21:57 UTC. Time now 2018-Jul-21 03:33 UTC.
Position N 38°19' W 123°03'.
Warning: this ship's position is months out of date.

Length 13 m.

Type: Pleasure craft. MMSI: 338159978.

Date/timePositionNaut miles runAvg speedWind from/ knotsBaromVisibWave heightAir tempDewpointWater temp
2018-Feb-09 21:57N 38°19' W 123°03'2 0.1
2018-Feb-08 01:30N 38°17' W 123°05'1324.1
2018-Feb-08 00:57N 38°25' W 123°19'2 4.0
2018-Feb-08 00:29N 38°26' W 123°21'0 1.0
2018-Feb-08 00:00N 38°26' W 123°22'2 3.2
2018-Feb-07 23:30N 38°24' W 123°22'3 6.1
2018-Feb-07 22:59N 38°21' W 123°24'1 1.1
2018-Feb-07 22:30N 38°21' W 123°24'2 4.5
2018-Feb-07 22:00N 38°20' W 123°21'1123.2
2018-Feb-07 21:31N 38°18' W 123°07'3 0.1
2018-Feb-06 21:51N 38°20' W 123°03'3 9.2
2018-Feb-06 21:30N 38°18' W 123°07'2 3.0
2018-Feb-06 20:58N 38°17' W 123°05'3 5.0
2018-Feb-06 20:27N 38°20' W 123°03'0 0.0
2018-Feb-05 22:20N 38°20' W 123°03'0 0.5
2018-Feb-05 21:54N 38°20' W 123°04'0 0.0
2018-Feb-05 21:26N 38°20' W 123°04'2 5.5
2018-Feb-05 20:59N 38°18' W 123°04'1121.8
2018-Feb-05 20:30N 38°24' W 123°15'2 3.8
2018-Feb-05 20:00N 38°24' W 123°17'2 3.8
2018-Feb-05 19:28N 38°22' W 123°15'1 2.8
2018-Feb-05 19:00N 38°21' W 123°15'0 1.0
2018-Feb-05 18:30N 38°20' W 123°15'612.4
2018-Feb-05 18:00N 38°18' W 123°07'  
2018-Feb-02 21:33N 38°20' W 123°03'0 0.0
2018-Feb-02 21:27N 38°20' W 123°03'0 0.0
2018-Feb-02 20:51N 38°20' W 123°03'0 0.5
2018-Feb-02 20:30N 38°20' W 123°04'0 0.0
2018-Feb-02 19:57N 38°20' W 123°04'7 6.7
2018-Feb-02 18:59N 38°20' W 123°12'4 8.5
2018-Feb-02 18:29N 38°22' W 123°16'1 1.3
2018-Feb-02 18:01N 38°23' W 123°16'0 0.7
2018-Feb-02 17:31N 38°23' W 123°15'1 1.6
2018-Feb-02 16:59N 38°24' W 123°16'0 0.7
2018-Feb-02 16:30N 38°24' W 123°16'3 3.2
2018-Feb-02 15:31N 38°26' W 123°13'  
2018-Jan-30 23:57N 38°20' W 123°04'0 0.2
2018-Jan-30 23:30N 38°20' W 123°03'1 2.3
2018-Jan-30 22:59N 38°19' W 123°03'815.7
2018-Jan-30 22:30N 38°24' W 123°10'  

Dump ship's entire track history